createdAt,value
2018-09-22T00:01:11.570Z,16.06
2018-09-22T00:03:39.951Z,16.04
2018-09-22T00:06:08.390Z,16.11
2018-09-22T00:08:36.776Z,16.23
2018-09-22T00:11:05.319Z,16.21
2018-09-22T00:13:33.644Z,16.22
2018-09-22T00:16:02.004Z,16.17
2018-09-22T00:18:30.415Z,16.14
2018-09-22T00:20:58.751Z,16.16
2018-09-22T00:23:27.179Z,16.13
2018-09-22T00:25:55.679Z,16.16
2018-09-22T00:28:24.168Z,16.12
2018-09-22T00:30:52.593Z,16.09
2018-09-22T00:33:21.052Z,16.05
2018-09-22T00:35:49.432Z,15.93
2018-09-22T00:38:17.944Z,15.83
2018-09-22T00:40:46.324Z,15.75
2018-09-22T00:43:14.769Z,15.74
2018-09-22T00:45:43.159Z,15.72
2018-09-22T00:48:11.624Z,15.71
2018-09-22T00:50:40.052Z,15.67
2018-09-22T00:53:08.498Z,15.69
2018-09-22T00:55:36.856Z,15.71
2018-09-22T00:58:05.292Z,15.74
2018-09-22T01:00:33.711Z,15.72
2018-09-22T01:03:02.168Z,15.72
2018-09-22T01:05:30.520Z,15.72
2018-09-22T01:07:58.854Z,15.77
2018-09-22T01:10:27.288Z,15.85
2018-09-22T01:12:55.674Z,15.88
2018-09-22T01:15:24.071Z,15.85
2018-09-22T01:17:52.444Z,15.83
2018-09-22T01:20:20.773Z,15.80
2018-09-22T01:22:49.136Z,15.76
2018-09-22T01:25:17.578Z,15.74
2018-09-22T01:27:46.004Z,15.68
2018-09-22T01:30:14.344Z,15.64
2018-09-22T01:32:42.948Z,15.67
2018-09-22T01:35:11.416Z,15.66
2018-09-22T01:37:39.808Z,15.60
2018-09-22T01:40:08.373Z,15.55
2018-09-22T01:42:36.769Z,15.51
2018-09-22T01:45:05.270Z,15.56
2018-09-22T01:47:33.844Z,15.60
2018-09-22T01:50:02.337Z,15.62
2018-09-22T01:52:30.772Z,15.66
2018-09-22T01:54:59.138Z,15.61
2018-09-22T01:57:28.202Z,15.56
2018-09-22T01:59:56.518Z,15.57
2018-09-22T02:02:24.958Z,15.62
2018-09-22T02:04:53.286Z,15.65
2018-09-22T02:07:22.058Z,15.72
2018-09-22T02:09:50.448Z,15.73
2018-09-22T02:12:18.840Z,15.77
2018-09-22T02:14:47.500Z,15.83
2018-09-22T02:17:15.976Z,15.83
2018-09-22T02:19:44.312Z,15.80
2018-09-22T02:22:12.680Z,15.83
2018-09-22T02:24:41.187Z,15.80
2018-09-22T02:27:09.639Z,15.79
2018-09-22T02:29:38.114Z,15.79
2018-09-22T02:32:06.763Z,15.84
2018-09-22T02:34:35.214Z,15.85
2018-09-22T02:37:03.607Z,15.79
2018-09-22T02:39:32.077Z,15.69
2018-09-22T02:42:00.511Z,15.66
2018-09-22T02:44:28.891Z,15.64
2018-09-22T02:46:57.428Z,15.59
2018-09-22T02:49:25.889Z,15.65
2018-09-22T02:51:54.327Z,15.63
2018-09-22T02:54:22.719Z,15.57
2018-09-22T02:56:51.049Z,15.55
2018-09-22T02:59:19.583Z,15.54
2018-09-22T03:01:48.000Z,15.56
2018-09-22T03:04:16.557Z,15.53
2018-09-22T03:06:44.972Z,15.51
2018-09-22T03:09:13.614Z,15.46
2018-09-22T03:11:41.988Z,15.43
2018-09-22T03:14:10.526Z,15.49
2018-09-22T03:16:39.548Z,15.54
2018-09-22T03:19:07.914Z,15.55
2018-09-22T03:21:36.358Z,15.55
2018-09-22T03:24:04.859Z,15.60
2018-09-22T03:26:33.191Z,15.61
2018-09-22T03:29:01.521Z,15.56
2018-09-22T03:31:30.023Z,15.57
2018-09-22T03:33:58.361Z,15.62
2018-09-22T03:36:26.732Z,15.58
2018-09-22T03:38:55.276Z,15.54
2018-09-22T03:41:23.621Z,15.44
2018-09-22T03:43:52.047Z,15.36
2018-09-22T03:46:20.407Z,15.26
2018-09-22T03:48:48.788Z,15.16
2018-09-22T03:51:17.171Z,15.14
2018-09-22T03:53:45.674Z,15.09
2018-09-22T03:56:14.015Z,15.06
2018-09-22T03:58:42.357Z,15.02
2018-09-22T04:01:10.779Z,15.02
2018-09-22T04:03:39.119Z,15.02
2018-09-22T04:06:07.462Z,15.03
2018-09-22T04:08:35.821Z,15.02
2018-09-22T04:11:04.192Z,15.01
2018-09-22T04:13:32.532Z,14.98
2018-09-22T04:16:00.906Z,14.96
2018-09-22T04:18:29.488Z,14.95
2018-09-22T04:20:58.010Z,14.99
2018-09-22T04:23:26.580Z,15.04
2018-09-22T04:25:54.905Z,15.09
2018-09-22T04:28:23.276Z,15.13
2018-09-22T04:30:51.870Z,15.15
2018-09-22T04:33:20.515Z,15.14
2018-09-22T04:35:49.051Z,15.14
2018-09-22T04:38:17.528Z,15.13
2018-09-22T04:40:45.991Z,15.07
2018-09-22T04:43:14.315Z,15.06
2018-09-22T04:45:42.688Z,15.02
2018-09-22T04:48:11.002Z,15.07
2018-09-22T04:50:39.373Z,15.10
2018-09-22T04:53:07.799Z,15.09
2018-09-22T04:55:36.235Z,15.00
2018-09-22T04:58:04.572Z,14.94
2018-09-22T05:00:33.179Z,14.90
2018-09-22T05:03:01.547Z,14.86
2018-09-22T05:05:29.961Z,14.81
2018-09-22T05:07:58.337Z,14.74
2018-09-22T05:10:26.680Z,14.66
2018-09-22T05:13:01.502Z,14.63
2018-09-22T05:15:30.032Z,14.55
2018-09-22T05:17:58.679Z,14.52
2018-09-22T05:20:27.150Z,14.53
2018-09-22T05:22:55.728Z,14.49
2018-09-22T05:25:24.076Z,14.46
2018-09-22T05:27:52.463Z,14.44
2018-09-22T05:30:20.904Z,14.37
2018-09-22T05:32:49.372Z,14.37
2018-09-22T05:35:18.728Z,14.42
2018-09-22T05:37:47.088Z,14.47
2018-09-22T05:40:15.468Z,14.52
2018-09-22T05:42:43.983Z,14.57
2018-09-22T05:45:12.320Z,14.64
2018-09-22T05:47:40.673Z,14.65
2018-09-22T05:50:09.103Z,14.66
2018-09-22T05:52:37.439Z,14.71
2018-09-22T05:55:05.835Z,14.76
2018-09-22T05:57:34.383Z,14.73
2018-09-22T06:00:02.946Z,14.69
2018-09-22T06:02:31.291Z,14.69
2018-09-22T06:04:59.668Z,14.72
2018-09-22T06:07:28.156Z,14.66
2018-09-22T06:09:56.521Z,14.63
2018-09-22T06:12:24.976Z,14.61
2018-09-22T06:14:53.338Z,14.67
2018-09-22T06:17:21.694Z,14.68
2018-09-22T06:19:50.172Z,14.60
2018-09-22T06:22:18.564Z,14.55
2018-09-22T06:24:46.963Z,14.56
2018-09-22T06:27:15.439Z,14.53
2018-09-22T06:29:43.883Z,14.52
2018-09-22T06:32:13.335Z,14.53
2018-09-22T06:34:41.724Z,14.53
2018-09-22T06:37:10.419Z,14.53
2018-09-22T06:39:39.031Z,14.57
2018-09-22T06:42:07.500Z,14.59
2018-09-22T06:44:35.844Z,14.58
2018-09-22T06:47:04.207Z,14.56
2018-09-22T06:49:32.615Z,14.56
2018-09-22T06:52:00.955Z,14.59
2018-09-22T06:54:29.284Z,14.61
2018-09-22T06:56:57.685Z,14.70
2018-09-22T06:59:26.140Z,14.75
2018-09-22T07:01:54.481Z,14.83
2018-09-22T07:04:22.981Z,14.92
2018-09-22T07:06:51.389Z,14.93
2018-09-22T07:09:19.764Z,14.96
2018-09-22T07:11:48.156Z,15.00
2018-09-22T07:14:16.529Z,15.04
2018-09-22T07:16:45.000Z,15.05
2018-09-22T07:19:13.392Z,15.09
2018-09-22T07:21:47.904Z,15.19
2018-09-22T07:24:16.420Z,15.33
2018-09-22T07:26:44.755Z,15.41
2018-09-22T07:29:13.176Z,15.47
2018-09-22T07:31:41.564Z,15.48
2018-09-22T07:34:09.947Z,15.45
2018-09-22T07:36:38.315Z,15.45
2018-09-22T07:39:09.676Z,15.55
2018-09-22T07:41:38.040Z,15.68
2018-09-22T07:44:06.427Z,15.79
2018-09-22T07:46:35.420Z,15.81
2018-09-22T07:49:04.064Z,15.91
2018-09-22T07:51:32.624Z,16.01
2018-09-22T07:54:01.217Z,16.04
2018-09-22T07:57:01.207Z,15.98
2018-09-22T07:59:29.593Z,16.04
2018-09-22T08:01:57.953Z,16.03
2018-09-22T08:04:26.319Z,16.01
2018-09-22T08:06:54.684Z,16.10
2018-09-22T08:09:23.064Z,16.17
2018-09-22T08:11:51.399Z,16.25
2018-09-22T08:14:19.803Z,16.41
2018-09-22T08:16:48.164Z,16.55
2018-09-22T08:19:16.529Z,16.63
2018-09-22T08:21:44.935Z,16.69
2018-09-22T08:24:14.307Z,16.77
2018-09-22T08:26:42.693Z,16.84
2018-09-22T08:29:48.706Z,16.91
2018-09-22T08:32:17.081Z,16.72
2018-09-22T08:35:11.773Z,16.70
2018-09-22T08:37:40.132Z,16.66
2018-09-22T08:40:08.832Z,16.79
2018-09-22T08:42:37.209Z,16.92
2018-09-22T08:45:06.049Z,17.01
2018-09-22T08:47:34.390Z,17.15
2018-09-22T08:50:02.776Z,17.26
2018-09-22T08:52:31.140Z,17.32
2018-09-22T08:54:59.482Z,17.31
2018-09-22T08:57:27.958Z,17.23
2018-09-22T08:59:56.305Z,17.26
2018-09-22T09:02:24.732Z,17.33
2018-09-22T09:04:53.143Z,17.36
2018-09-22T09:07:21.571Z,17.45
2018-09-22T09:09:51.090Z,17.48
2018-09-22T09:12:19.512Z,17.44
2018-09-22T09:14:48.501Z,17.48
2018-09-22T09:17:16.904Z,17.56
2018-09-22T09:19:45.335Z,17.63
2018-09-22T09:22:13.680Z,17.73
2018-09-22T09:24:42.008Z,17.76
2018-09-22T09:27:10.372Z,17.76
2018-09-22T09:29:41.570Z,17.81
2018-09-22T09:32:09.932Z,17.82
2018-09-22T09:34:38.609Z,17.89
2018-09-22T09:37:07.000Z,17.99
2018-09-22T09:39:35.338Z,18.11
2018-09-22T09:42:03.800Z,18.26
2018-09-22T09:44:32.140Z,18.42
2018-09-22T09:47:00.475Z,18.36
2018-09-22T09:49:28.914Z,18.25
2018-09-22T09:51:57.294Z,18.20
2018-09-22T09:54:25.694Z,18.09
2018-09-22T09:56:54.040Z,18.02
2018-09-22T09:59:22.488Z,18.05
2018-09-22T10:01:50.868Z,18.18
2018-09-22T10:04:19.458Z,18.26
2018-09-22T10:06:47.756Z,18.30
2018-09-22T10:09:16.112Z,18.42
2018-09-22T10:11:45.449Z,18.47
2018-09-22T10:14:14.477Z,18.54
2018-09-22T10:16:42.928Z,18.53
2018-09-22T10:19:11.284Z,18.55
2018-09-22T10:21:39.663Z,18.65
2018-09-22T10:24:08.048Z,18.74
2018-09-22T10:26:36.539Z,18.77
2018-09-22T10:29:05.000Z,18.77
2018-09-22T10:31:33.349Z,18.87
2018-09-22T10:34:01.735Z,18.90
2018-09-22T10:36:30.116Z,18.89
2018-09-22T10:38:58.448Z,18.95
2018-09-22T10:41:26.808Z,19.07
2018-09-22T10:43:55.224Z,19.25
2018-09-22T10:46:23.592Z,19.41
2018-09-22T10:48:52.419Z,19.46
2018-09-22T10:51:20.772Z,19.47
2018-09-22T10:53:49.080Z,19.48
2018-09-22T10:56:17.461Z,19.50
2018-09-22T10:58:45.872Z,19.42
2018-09-22T11:01:14.204Z,19.37
2018-09-22T11:03:42.628Z,19.41
2018-09-22T11:06:10.958Z,19.41
2018-09-22T11:08:39.312Z,19.55
2018-09-22T11:11:07.822Z,19.68
2018-09-22T11:13:36.172Z,19.73
2018-09-22T11:16:04.563Z,19.86
2018-09-22T11:18:32.941Z,19.99
2018-09-22T11:21:01.282Z,19.99
2018-09-22T11:23:29.636Z,19.84
2018-09-22T11:25:58.081Z,19.88
2018-09-22T11:28:26.455Z,19.94
2018-09-22T11:30:54.797Z,19.96
2018-09-22T11:33:23.311Z,19.96
2018-09-22T11:35:51.686Z,20.05
2018-09-22T11:38:20.031Z,20.12
2018-09-22T11:40:48.542Z,20.03
2018-09-22T11:43:16.904Z,19.96
2018-09-22T11:45:45.305Z,19.98
2018-09-22T11:48:13.693Z,20.04
2018-09-22T11:50:42.055Z,20.05
2018-09-22T11:53:10.400Z,20.19
2018-09-22T11:55:38.766Z,20.37
2018-09-22T11:58:07.155Z,20.42
2018-09-22T12:00:36.427Z,20.40
2018-09-22T12:03:04.889Z,20.45
2018-09-22T12:05:33.442Z,20.53
2018-09-22T12:08:01.805Z,20.56
2018-09-22T12:10:30.189Z,20.45
2018-09-22T12:12:58.536Z,20.24
2018-09-22T12:15:26.896Z,20.07
2018-09-22T12:17:55.351Z,19.95
2018-09-22T12:20:23.682Z,19.95
2018-09-22T12:22:52.338Z,19.94
2018-09-22T12:25:20.740Z,20.01
2018-09-22T12:27:49.092Z,20.16
2018-09-22T12:30:17.446Z,20.29
2018-09-22T12:32:45.824Z,20.45
2018-09-22T12:35:14.156Z,20.59
2018-09-22T12:37:42.491Z,20.59
2018-09-22T12:40:10.880Z,20.50
2018-09-22T12:42:39.320Z,20.43
2018-09-22T12:45:07.728Z,20.64
2018-09-22T12:47:36.124Z,20.79
2018-09-22T12:50:04.524Z,20.89
2018-09-22T12:52:32.888Z,21.00
2018-09-22T12:55:01.383Z,21.10
2018-09-22T12:57:29.957Z,21.03
2018-09-22T12:59:58.329Z,20.98
2018-09-22T13:02:26.770Z,21.02
2018-09-22T13:04:55.123Z,21.00
2018-09-22T13:07:23.475Z,21.02
2018-09-22T13:09:51.851Z,21.17
2018-09-22T13:12:20.241Z,21.44
2018-09-22T13:14:48.584Z,21.67
2018-09-22T13:17:16.966Z,21.77
2018-09-22T13:19:45.302Z,21.73
2018-09-22T13:22:13.646Z,21.69
2018-09-22T13:24:42.047Z,21.79
2018-09-22T13:27:10.401Z,21.76
2018-09-22T13:29:45.265Z,21.73
2018-09-22T13:32:13.642Z,21.64
2018-09-22T13:34:41.995Z,21.69
2018-09-22T13:37:10.397Z,21.58
2018-09-22T13:39:38.739Z,21.62
2018-09-22T13:42:07.119Z,21.81
2018-09-22T13:44:35.491Z,22.02
2018-09-22T13:47:04.120Z,22.14
2018-09-22T13:49:32.475Z,22.23
2018-09-22T13:52:00.873Z,22.21
2018-09-22T13:54:29.213Z,22.26
2018-09-22T13:56:58.465Z,22.32
2018-09-22T13:59:26.876Z,22.17
2018-09-22T14:01:55.232Z,22.03
2018-09-22T14:04:23.593Z,21.94
2018-09-22T14:06:52.003Z,21.74
2018-09-22T14:09:20.367Z,21.64
2018-09-22T14:11:49.620Z,21.57
2018-09-22T14:14:18.050Z,21.56
2018-09-22T14:16:46.387Z,21.54
2018-09-22T14:19:14.757Z,21.55
2018-09-22T14:21:43.161Z,21.43
2018-09-22T14:24:11.583Z,21.39
2018-09-22T14:26:39.905Z,21.40
2018-09-22T14:29:09.251Z,21.46
2018-09-22T14:31:37.590Z,21.49
2018-09-22T14:34:05.968Z,21.47
2018-09-22T14:36:34.711Z,21.35
2018-09-22T14:39:03.180Z,21.27
2018-09-22T14:41:31.507Z,21.24
2018-09-22T14:43:59.915Z,21.29
2018-09-22T14:46:28.259Z,21.37
2018-09-22T14:48:56.616Z,21.39
2018-09-22T14:51:24.999Z,21.43
2018-09-22T14:53:53.364Z,21.54
2018-09-22T14:56:21.694Z,21.62
2018-09-22T14:58:50.178Z,21.60
2018-09-22T15:01:18.504Z,21.55
2018-09-22T15:03:47.368Z,21.52
2018-09-22T15:06:15.895Z,21.46
2018-09-22T15:08:44.284Z,21.53
2018-09-22T15:11:12.623Z,21.56
2018-09-22T15:13:41.006Z,21.47
2018-09-22T15:16:09.393Z,21.45
2018-09-22T15:18:37.720Z,21.41
2018-09-22T15:21:06.246Z,21.34
2018-09-22T15:23:34.616Z,21.32
2018-09-22T15:26:02.988Z,21.27
2018-09-22T15:28:31.416Z,21.21
2018-09-22T15:31:00.733Z,21.22
2018-09-22T15:33:29.072Z,21.22
2018-09-22T15:35:57.476Z,21.25
2018-09-22T15:38:25.820Z,21.31
2018-09-22T15:40:54.169Z,21.37
2018-09-22T15:43:22.680Z,21.41
2018-09-22T15:45:51.038Z,21.37
2018-09-22T15:48:19.556Z,21.28
2018-09-22T15:50:47.911Z,21.24
2018-09-22T15:53:16.252Z,21.20
2018-09-22T15:55:44.596Z,21.14
2018-09-22T15:58:12.984Z,21.11
2018-09-22T16:00:41.339Z,21.01
2018-09-22T16:03:09.686Z,20.88
2018-09-22T16:05:38.095Z,20.75
2018-09-22T16:08:06.720Z,20.63
2018-09-22T16:10:35.069Z,20.66
2018-09-22T16:13:03.521Z,20.70
2018-09-22T16:15:31.887Z,20.72
2018-09-22T16:18:00.239Z,20.70
2018-09-22T16:20:28.633Z,20.69
2018-09-22T16:22:56.984Z,20.59
2018-09-22T16:25:25.343Z,20.54
2018-09-22T16:27:53.729Z,20.51
2018-09-22T16:30:22.050Z,20.45
2018-09-22T16:32:50.404Z,20.36
2018-09-22T16:35:18.878Z,20.31
2018-09-22T16:37:47.126Z,20.26
2018-09-22T16:40:15.498Z,20.17
2018-09-22T16:42:43.921Z,20.08
2018-09-22T16:45:12.275Z,20.01
2018-09-22T16:47:40.598Z,19.94
2018-09-22T16:50:09.210Z,19.89
2018-09-22T16:52:37.520Z,19.84
2018-09-22T16:55:05.913Z,19.79
2018-09-22T16:57:34.326Z,19.75
2018-09-22T17:00:02.755Z,19.66
2018-09-22T17:02:31.080Z,19.57
2018-09-22T17:04:59.448Z,19.49
2018-09-22T17:07:27.788Z,19.39
2018-09-22T17:09:56.139Z,19.28
2018-09-22T17:12:24.552Z,19.20
2018-09-22T17:14:52.923Z,19.17
2018-09-22T17:17:21.311Z,19.11
2018-09-22T17:19:49.683Z,19.05
2018-09-22T17:22:18.047Z,18.98
2018-09-22T17:24:46.383Z,18.94
2018-09-22T17:27:14.754Z,18.91
2018-09-22T17:29:43.140Z,18.84
2018-09-22T17:32:11.520Z,18.76
2018-09-22T17:34:39.980Z,18.79
2018-09-22T17:37:08.318Z,18.77
2018-09-22T17:39:36.715Z,18.69
2018-09-22T17:42:05.486Z,18.61
2018-09-22T17:44:33.864Z,18.52
2018-09-22T17:47:02.231Z,18.45
2018-09-22T17:49:30.613Z,18.43
2018-09-22T17:51:59.317Z,18.46
2018-09-22T17:54:27.651Z,18.47
2018-09-22T17:56:56.029Z,18.40
2018-09-22T17:59:24.388Z,18.33
2018-09-22T18:01:52.764Z,18.21
2018-09-22T18:04:21.198Z,18.13
2018-09-22T18:06:49.538Z,17.99
2018-09-22T18:09:17.901Z,17.92
2018-09-22T18:11:46.259Z,17.99
2018-09-22T18:14:14.592Z,18.02
2018-09-22T18:16:43.033Z,17.99
2018-09-22T18:19:11.447Z,17.99
2018-09-22T18:21:39.970Z,17.94
2018-09-22T18:24:08.356Z,17.83
2018-09-22T18:26:36.869Z,17.80
2018-09-22T18:29:05.721Z,17.83
2018-09-22T18:31:34.113Z,17.84
2018-09-22T18:34:02.620Z,17.74
2018-09-22T18:36:30.965Z,17.72
2018-09-22T18:38:59.319Z,17.72
2018-09-22T18:41:27.727Z,17.75
2018-09-22T18:43:56.126Z,17.75
2018-09-22T18:46:24.476Z,17.78
2018-09-22T18:48:52.869Z,17.88
2018-09-22T18:51:21.231Z,17.97
2018-09-22T18:53:49.628Z,17.93
2018-09-22T18:56:18.129Z,17.84
2018-09-22T18:58:46.593Z,17.78
2018-09-22T19:01:14.848Z,17.76
2018-09-22T19:03:43.272Z,17.78
2018-09-22T19:06:11.625Z,17.82
2018-09-22T19:08:39.971Z,17.77
2018-09-22T19:11:08.335Z,17.73
2018-09-22T19:13:46.386Z,17.70
2018-09-22T19:16:19.524Z,17.69
2018-09-22T19:18:51.956Z,17.65
2018-09-22T19:21:24.689Z,17.64
2018-09-22T19:24:02.653Z,17.59
2018-09-22T19:26:35.455Z,17.58
2018-09-22T19:29:08.398Z,17.53
2018-09-22T19:31:43.285Z,17.55
2018-09-22T19:34:17.964Z,17.59
2018-09-22T19:36:51.408Z,17.61
2018-09-22T19:39:29.989Z,17.59
2018-09-22T19:42:34.238Z,17.58
2018-09-22T19:45:06.562Z,17.53
2018-09-22T19:47:39.364Z,17.51
2018-09-22T19:50:09.984Z,17.53
2018-09-22T19:52:44.361Z,17.49
2018-09-22T19:55:12.753Z,17.42
2018-09-22T19:57:41.106Z,17.37
2018-09-22T20:00:10.125Z,17.27
2018-09-22T20:02:39.002Z,17.21
2018-09-22T20:05:07.391Z,17.23
2018-09-22T20:07:36.777Z,17.22
2018-09-22T20:10:05.193Z,17.25
2018-09-22T20:12:33.619Z,17.35
2018-09-22T20:15:02.103Z,17.38
2018-09-22T20:17:30.569Z,17.36
2018-09-22T20:19:59.635Z,17.37
2018-09-22T20:22:28.053Z,17.35
2018-09-22T20:24:56.411Z,17.32
2018-09-22T20:27:24.816Z,17.34
2018-09-22T20:29:53.208Z,17.34
2018-09-22T20:32:22.127Z,17.34
2018-09-22T20:34:50.485Z,17.30
2018-09-22T20:37:18.883Z,17.28
2018-09-22T20:39:47.241Z,17.30
2018-09-22T20:42:15.591Z,17.30
2018-09-22T20:44:43.970Z,17.29
2018-09-22T20:47:12.341Z,17.27
2018-09-22T20:49:40.695Z,17.22
2018-09-22T20:52:09.093Z,17.19
2018-09-22T20:54:37.441Z,17.16
2018-09-22T20:57:05.875Z,17.09
2018-09-22T20:59:34.275Z,17.03
2018-09-22T21:02:02.653Z,16.99
2018-09-22T21:04:30.972Z,16.98
2018-09-22T21:06:59.380Z,16.98
2018-09-22T21:09:27.715Z,16.96
2018-09-22T21:11:56.062Z,16.95
2018-09-22T21:14:24.419Z,16.90
2018-09-22T21:16:52.758Z,16.83
2018-09-22T21:19:21.126Z,16.76
2018-09-22T21:21:49.503Z,16.70
2018-09-22T21:24:17.853Z,16.69
2018-09-22T21:26:46.213Z,16.67
2018-09-22T21:29:14.601Z,16.67
2018-09-22T21:31:42.949Z,16.62
2018-09-22T21:34:11.402Z,16.61
2018-09-22T21:36:39.873Z,16.59
2018-09-22T21:39:09.640Z,16.59
2018-09-22T21:41:37.993Z,16.60
2018-09-22T21:44:06.465Z,16.65
2018-09-22T21:46:34.799Z,16.62
2018-09-22T21:49:03.445Z,16.59
2018-09-22T21:51:31.897Z,16.58
2018-09-22T21:54:00.247Z,16.57
2018-09-22T21:56:28.584Z,16.52
2018-09-22T21:58:56.961Z,16.47
2018-09-22T22:01:30.694Z,16.49
2018-09-22T22:03:59.076Z,16.58
2018-09-22T22:06:27.417Z,16.64
2018-09-22T22:08:55.739Z,16.65
2018-09-22T22:11:24.178Z,16.66
2018-09-22T22:13:52.472Z,16.60
2018-09-22T22:16:20.831Z,16.63
2018-09-22T22:18:49.213Z,16.65
2018-09-22T22:21:17.554Z,16.62
2018-09-22T22:23:45.906Z,16.60
2018-09-22T22:26:14.354Z,16.57
2018-09-22T22:28:42.720Z,16.57
2018-09-22T22:31:11.076Z,16.56
2018-09-22T22:33:39.468Z,16.50
2018-09-22T22:36:07.827Z,16.46
2018-09-22T22:38:36.179Z,16.39
2018-09-22T22:41:04.584Z,16.36
2018-09-22T22:43:32.981Z,16.38
2018-09-22T22:46:01.400Z,16.38
2018-09-22T22:48:29.776Z,16.36
2018-09-22T22:50:58.112Z,16.34
2018-09-22T22:53:26.464Z,16.37
2018-09-22T22:55:54.852Z,16.31
2018-09-22T22:58:23.354Z,16.29
2018-09-22T23:00:51.716Z,16.29
2018-09-22T23:03:20.064Z,16.28
2018-09-22T23:05:48.403Z,16.23
2018-09-22T23:08:16.747Z,16.16
2018-09-22T23:10:45.157Z,16.09
2018-09-22T23:13:13.523Z,16.00
2018-09-22T23:15:41.907Z,16.02
2018-09-22T23:18:10.296Z,16.01
2018-09-22T23:20:38.631Z,16.04
2018-09-22T23:23:06.972Z,15.97
2018-09-22T23:25:35.419Z,15.95
2018-09-22T23:28:03.773Z,16.02
2018-09-22T23:30:32.223Z,15.99
2018-09-22T23:33:00.659Z,15.97
2018-09-22T23:35:28.984Z,16.00
2018-09-22T23:37:57.309Z,15.98
2018-09-22T23:40:25.732Z,15.94
2018-09-22T23:42:54.060Z,15.96
2018-09-22T23:45:22.391Z,15.94
2018-09-22T23:47:50.829Z,15.89
2018-09-22T23:50:19.259Z,15.80
2018-09-22T23:52:47.585Z,15.91
2018-09-22T23:55:15.992Z,15.98
2018-09-22T23:57:44.339Z,16.00
